createdAt,value
2018-04-29T00:00:40.788Z,0
2018-04-29T00:01:40.535Z,0
2018-04-29T00:02:40.535Z,0
2018-04-29T00:03:40.525Z,0
2018-04-29T00:04:40.770Z,0
2018-04-29T00:05:40.765Z,0
2018-04-29T00:06:40.767Z,0
2018-04-29T00:07:40.751Z,0
2018-04-29T00:08:40.504Z,0
2018-04-29T00:09:40.747Z,0
2018-04-29T00:10:40.230Z,0
2018-04-29T00:11:40.728Z,0
2018-04-29T00:12:40.721Z,0
2018-04-29T00:13:40.730Z,0
2018-04-29T00:14:40.721Z,0
2018-04-29T00:15:40.722Z,0
2018-04-29T00:16:40.457Z,0
2018-04-29T00:17:40.202Z,0
2018-04-29T00:18:40.458Z,0
2018-04-29T00:19:40.684Z,0
2018-04-29T00:20:40.680Z,0
2018-04-29T00:21:40.678Z,0
2018-04-29T00:22:40.692Z,0
2018-04-29T00:23:40.663Z,0
2018-04-29T00:24:40.405Z,0
2018-04-29T00:25:40.664Z,0
2018-04-29T00:26:40.400Z,0
2018-04-29T00:27:40.395Z,0
2018-04-29T00:28:40.634Z,0
2018-04-29T00:29:40.629Z,0
2018-04-29T00:30:40.375Z,0
2018-04-29T00:31:40.620Z,0
2018-04-29T00:32:40.108Z,0
2018-04-29T00:33:40.676Z,0
2018-04-29T00:34:40.360Z,0
2018-04-29T00:35:40.346Z,0
2018-04-29T00:36:40.339Z,0
2018-04-29T00:37:40.588Z,0
2018-04-29T00:38:40.924Z,0
2018-04-29T00:39:40.575Z,0
2018-04-29T00:40:40.318Z,0
2018-04-29T00:41:40.311Z,0
2018-04-29T00:42:40.644Z,0
2018-04-29T00:43:40.555Z,0
2018-04-29T00:44:40.323Z,0
2018-04-29T00:45:40.554Z,0
2018-04-29T00:46:40.550Z,0
2018-04-29T00:47:40.537Z,0
2018-04-29T00:48:40.272Z,0
2018-04-29T00:49:40.097Z,0
2018-04-29T00:50:40.513Z,0
2018-04-29T00:51:40.507Z,0
2018-04-29T00:52:40.517Z,0
2018-04-29T00:53:40.251Z,0
2018-04-29T00:54:40.517Z,0
2018-04-29T00:55:40.492Z,0
2018-04-29T00:56:39.974Z,0
2018-04-29T00:57:40.227Z,0
2018-04-29T00:58:40.468Z,0
2018-04-29T00:59:40.461Z,0
2018-04-29T01:00:40.203Z,0
2018-04-29T01:01:40.197Z,0
2018-04-29T01:02:40.450Z,0
2018-04-29T01:03:40.441Z,0
2018-04-29T01:04:40.435Z,0
2018-04-29T01:05:40.421Z,0
2018-04-29T01:06:40.423Z,0
2018-04-29T01:07:40.161Z,0
2018-04-29T01:08:40.155Z,0
2018-04-29T01:09:40.151Z,0
2018-04-29T01:10:40.400Z,0
2018-04-29T01:11:40.796Z,0
2018-04-29T01:12:39.876Z,0
2018-04-29T01:13:40.380Z,0
2018-04-29T01:14:40.374Z,0
2018-04-29T01:15:40.123Z,0
2018-04-29T01:16:40.355Z,0
2018-04-29T01:17:40.375Z,0
2018-04-29T01:18:40.411Z,0
2018-04-29T01:19:40.083Z,0
2018-04-29T01:20:40.331Z,0
2018-04-29T01:21:40.083Z,0
2018-04-29T01:22:40.078Z,0
2018-04-29T01:23:40.312Z,0
2018-04-29T01:24:40.309Z,0
2018-04-29T01:25:40.049Z,0
2018-04-29T01:26:40.292Z,0
2018-04-29T01:27:39.787Z,0
2018-04-29T01:28:40.277Z,0
2018-04-29T01:29:40.024Z,0
2018-04-29T01:30:40.270Z,0
2018-04-29T01:31:40.258Z,0
2018-04-29T01:32:40.262Z,0
2018-04-29T01:33:40.243Z,0
2018-04-29T01:34:40.246Z,0
2018-04-29T01:35:40.246Z,0
2018-04-29T01:36:40.225Z,0
2018-04-29T01:37:40.234Z,0
2018-04-29T01:38:40.212Z,0
2018-04-29T01:39:40.214Z,0
2018-04-29T01:40:40.206Z,0
2018-04-29T01:41:40.206Z,0
2018-04-29T01:42:40.185Z,0
2018-04-29T01:43:40.181Z,0
2018-04-29T01:44:40.172Z,0
2018-04-29T01:45:39.919Z,0
2018-04-29T01:46:40.165Z,0
2018-04-29T01:47:39.903Z,0
2018-04-29T01:48:39.891Z,0
2018-04-29T01:49:39.897Z,0
2018-04-29T01:50:39.627Z,0
2018-04-29T01:51:39.740Z,0
2018-04-29T01:52:40.124Z,0
2018-04-29T01:53:40.121Z,0
2018-04-29T01:54:40.106Z,0
2018-04-29T01:55:40.097Z,0
2018-04-29T01:56:39.839Z,0
2018-04-29T01:57:40.098Z,0
2018-04-29T01:58:40.085Z,0
2018-04-29T01:59:39.827Z,0
2018-04-29T02:00:40.066Z,0
2018-04-29T02:01:40.060Z,0
2018-04-29T02:02:40.051Z,0
2018-04-29T02:03:40.104Z,0
2018-04-29T02:04:40.037Z,0
2018-04-29T02:05:40.035Z,0
2018-04-29T02:06:39.771Z,0
2018-04-29T02:07:40.018Z,0
2018-04-29T02:08:40.023Z,0
2018-04-29T02:09:40.003Z,0
2018-04-29T02:10:39.993Z,0
2018-04-29T02:11:39.988Z,0
2018-04-29T02:12:40.008Z,0
2018-04-29T02:13:39.990Z,0
2018-04-29T02:14:39.462Z,0
2018-04-29T02:15:39.964Z,0
2018-04-29T02:16:39.962Z,0
2018-04-29T02:17:39.948Z,0
2018-04-29T02:18:39.965Z,0
2018-04-29T02:19:39.684Z,0
2018-04-29T02:20:39.679Z,0
2018-04-29T02:21:39.929Z,0
2018-04-29T02:22:39.670Z,0
2018-04-29T02:23:39.904Z,0
2018-04-29T02:24:39.393Z,0
2018-04-29T02:25:39.650Z,0
2018-04-29T02:26:39.890Z,0
2018-04-29T02:27:39.630Z,0
2018-04-29T02:28:39.876Z,0
2018-04-29T02:29:39.876Z,0
2018-04-29T02:30:39.875Z,0
2018-04-29T02:31:39.856Z,0
2018-04-29T02:32:39.862Z,0
2018-04-29T02:33:39.868Z,0
2018-04-29T02:34:39.835Z,0
2018-04-29T02:35:39.839Z,0
2018-04-29T02:36:39.825Z,0
2018-04-29T02:37:39.563Z,0
2018-04-29T02:38:39.809Z,0
2018-04-29T02:39:39.545Z,0
2018-04-29T02:40:39.810Z,0
2018-04-29T02:41:39.027Z,0
2018-04-29T02:42:39.568Z,0
2018-04-29T02:43:39.517Z,0
2018-04-29T02:44:39.524Z,0
2018-04-29T02:45:39.248Z,0
2018-04-29T02:46:39.495Z,0
2018-04-29T02:47:39.754Z,0
2018-04-29T02:48:39.834Z,0
2018-04-29T02:49:39.730Z,0
2018-04-29T02:50:39.730Z,0
2018-04-29T02:51:39.731Z,0
2018-04-29T02:52:39.727Z,0
2018-04-29T02:53:39.698Z,0
2018-04-29T02:54:39.732Z,0
2018-04-29T02:55:39.689Z,0
2018-04-29T02:56:39.428Z,0
2018-04-29T02:57:39.673Z,0
2018-04-29T02:58:39.408Z,0
2018-04-29T02:59:39.662Z,0
2018-04-29T03:00:39.659Z,0
2018-04-29T03:01:39.388Z,4
2018-04-29T03:02:39.638Z,4
2018-04-29T03:03:39.623Z,4
2018-04-29T03:04:39.621Z,0
2018-04-29T03:05:39.357Z,4
2018-04-29T03:06:39.617Z,4
2018-04-29T03:07:39.598Z,4
2018-04-29T03:08:39.338Z,8
2018-04-29T03:09:39.596Z,4
2018-04-29T03:10:39.576Z,4
2018-04-29T03:11:39.567Z,12
2018-04-29T03:12:39.577Z,12
2018-04-29T03:13:39.572Z,12
2018-04-29T03:14:39.307Z,12
2018-04-29T03:15:39.293Z,16
2018-04-29T03:16:39.283Z,20
2018-04-29T03:17:39.277Z,20
2018-04-29T03:18:39.517Z,24
2018-04-29T03:19:39.267Z,28
2018-04-29T03:20:39.498Z,32
2018-04-29T03:21:39.501Z,40
2018-04-29T03:22:39.495Z,44
2018-04-29T03:23:39.477Z,52
2018-04-29T03:24:39.478Z,56
2018-04-29T03:25:39.471Z,68
2018-04-29T03:26:39.206Z,76
2018-04-29T03:27:39.449Z,84
2018-04-29T03:28:39.451Z,96
2018-04-29T03:29:39.437Z,104
2018-04-29T03:30:39.184Z,116
2018-04-29T03:31:39.177Z,128
2018-04-29T03:32:39.412Z,140
2018-04-29T03:33:39.155Z,152
2018-04-29T03:34:39.409Z,160
2018-04-29T03:35:39.417Z,176
2018-04-29T03:36:39.391Z,188
2018-04-29T03:37:39.377Z,208
2018-04-29T03:38:39.124Z,220
2018-04-29T03:39:39.198Z,240
2018-04-29T03:40:39.108Z,256
2018-04-29T03:41:39.098Z,284
2018-04-29T03:42:39.353Z,312
2018-04-29T03:43:39.335Z,344
2018-04-29T03:44:39.334Z,364
2018-04-29T03:45:39.322Z,384
2018-04-29T03:46:39.057Z,416
2018-04-29T03:47:39.302Z,448
2018-04-29T03:48:39.313Z,488
2018-04-29T03:49:39.300Z,528
2018-04-29T03:50:39.049Z,572
2018-04-29T03:51:39.285Z,620
2018-04-29T03:52:39.268Z,668
2018-04-29T03:53:39.264Z,728
2018-04-29T03:54:39.256Z,788
2018-04-29T03:55:39.252Z,848
2018-04-29T03:56:38.992Z,896
2018-04-29T03:57:39.244Z,940
2018-04-29T03:58:38.726Z,984
2018-04-29T03:59:38.754Z,1032
2018-04-29T04:00:39.218Z,1096
2018-04-29T04:01:39.214Z,1168
2018-04-29T04:02:39.489Z,1240
2018-04-29T04:03:38.935Z,1312
2018-04-29T04:04:39.280Z,1388
2018-04-29T04:05:39.175Z,1460
2018-04-29T04:06:38.916Z,1548
2018-04-29T04:07:38.918Z,1648
2018-04-29T04:08:38.905Z,1756
2018-04-29T04:09:39.225Z,1876
2018-04-29T04:10:39.138Z,1988
2018-04-29T04:11:39.183Z,2100
2018-04-29T04:12:39.123Z,2228
2018-04-29T04:13:38.869Z,2328
2018-04-29T04:14:39.118Z,2364
2018-04-29T04:15:39.103Z,2436
2018-04-29T04:16:39.100Z,2560
2018-04-29T04:17:39.088Z,2700
2018-04-29T04:18:39.081Z,2888
2018-04-29T04:19:39.083Z,3080
2018-04-29T04:20:39.070Z,3240
2018-04-29T04:21:39.064Z,3336
2018-04-29T04:22:39.068Z,3384
2018-04-29T04:23:39.063Z,3436
2018-04-29T04:24:39.047Z,3504
2018-04-29T04:25:39.050Z,3620
2018-04-29T04:26:38.775Z,3764
2018-04-29T04:27:39.020Z,3940
2018-04-29T04:28:38.506Z,4124
2018-04-29T04:29:38.777Z,4340
2018-04-29T04:30:38.506Z,4488
2018-04-29T04:31:38.492Z,4580
2018-04-29T04:32:38.993Z,4704
2018-04-29T04:33:38.994Z,4904
2018-04-29T04:34:38.984Z,5124
2018-04-29T04:35:38.983Z,5400
2018-04-29T04:36:38.711Z,5688
2018-04-29T04:37:38.710Z,5904
2018-04-29T04:38:38.446Z,6148
2018-04-29T04:39:38.947Z,6364
2018-04-29T04:40:38.940Z,6680
2018-04-29T04:41:38.935Z,6564
2018-04-29T04:42:38.670Z,6844
2018-04-29T04:43:38.931Z,7016
2018-04-29T04:44:38.914Z,7132
2018-04-29T04:45:38.402Z,7248
2018-04-29T04:46:38.908Z,7384
2018-04-29T04:47:38.649Z,7224
2018-04-29T04:48:38.891Z,6976
2018-04-29T04:49:38.885Z,6884
2018-04-29T04:50:38.837Z,6848
2018-04-29T04:51:38.875Z,6576
2018-04-29T04:52:38.878Z,6524
2018-04-29T04:53:38.614Z,6708
2018-04-29T04:54:38.858Z,7128
2018-04-29T04:55:38.873Z,7312
2018-04-29T04:56:38.597Z,7716
2018-04-29T04:57:38.599Z,7844
2018-04-29T04:58:38.846Z,8096
2018-04-29T04:59:38.847Z,8660
2018-04-29T05:00:38.832Z,9208
2018-04-29T05:01:38.831Z,9324
2018-04-29T05:02:38.829Z,8916
2018-04-29T05:03:38.824Z,8292
2018-04-29T05:04:38.824Z,8028
2018-04-29T05:05:38.828Z,8432
2018-04-29T05:06:38.822Z,8932
2018-04-29T05:07:38.807Z,9768
2018-04-29T05:08:38.549Z,9840
2018-04-29T05:09:38.549Z,10076
2018-04-29T05:10:38.292Z,10568
2018-04-29T05:11:38.788Z,10376
2018-04-29T05:12:38.532Z,10860
2018-04-29T05:13:38.628Z,10632
2018-04-29T05:14:38.782Z,10548
2018-04-29T05:15:38.784Z,9584
2018-04-29T05:16:38.787Z,13444
2018-04-29T05:17:38.773Z,10804
2018-04-29T05:18:38.771Z,7756
2018-04-29T05:19:38.515Z,9464
2018-04-29T05:20:38.767Z,14592
2018-04-29T05:21:38.264Z,14944
2018-04-29T05:22:38.509Z,12148
2018-04-29T05:23:38.771Z,13140
2018-04-29T05:24:38.514Z,14492
2018-04-29T05:25:38.505Z,17920
2018-04-29T05:26:38.503Z,15744
2018-04-29T05:27:38.755Z,17344
2018-04-29T05:28:38.506Z,20352
2018-04-29T05:29:38.753Z,19424
2018-04-29T05:30:38.583Z,19104
2018-04-29T05:31:38.246Z,19264
2018-04-29T05:32:38.764Z,18240
2018-04-29T05:33:38.758Z,15840
2018-04-29T05:34:38.753Z,18080
2018-04-29T05:35:38.753Z,16512
2018-04-29T05:36:38.758Z,19904
2018-04-29T05:37:38.757Z,19808
2018-04-29T05:38:38.766Z,20832
2018-04-29T05:39:38.508Z,23328
2018-04-29T05:40:38.765Z,22528
2018-04-29T05:41:38.519Z,22304
2018-04-29T05:42:38.583Z,23488
2018-04-29T05:43:38.767Z,25920
2018-04-29T05:44:38.770Z,22528
2018-04-29T05:45:38.535Z,26848
2018-04-29T05:46:38.780Z,29152
2018-04-29T05:47:38.798Z,30944
2018-04-29T05:48:38.791Z,28128
2018-04-29T05:49:38.792Z,26880
2018-04-29T05:50:38.791Z,31360
2018-04-29T05:51:38.545Z,31744
2018-04-29T05:52:38.555Z,29888
2018-04-29T05:53:38.862Z,30976
2018-04-29T05:54:38.818Z,26656
2018-04-29T05:55:38.818Z,25568
2018-04-29T05:56:38.831Z,23328
2018-04-29T05:57:38.579Z,20640
2018-04-29T05:58:38.841Z,19776
2018-04-29T05:59:38.601Z,14888
2018-04-29T06:00:38.863Z,16384
2018-04-29T06:01:38.856Z,16768
2018-04-29T06:02:38.617Z,15744
2018-04-29T06:03:38.365Z,16608
2018-04-29T06:04:38.883Z,16160
2018-04-29T06:05:38.889Z,16576
2018-04-29T06:06:39.116Z,17760
2018-04-29T06:07:38.895Z,19680
2018-04-29T06:08:38.916Z,16960
2018-04-29T06:09:38.919Z,28384
2018-04-29T06:10:38.928Z,23328
2018-04-29T06:11:38.921Z,30560
2018-04-29T06:12:38.930Z,32256
2018-04-29T06:13:38.952Z,25184
2018-04-29T06:14:38.941Z,24160
2018-04-29T06:15:38.978Z,20576
2018-04-29T06:16:38.701Z,26272
2018-04-29T06:17:38.969Z,33408
2018-04-29T06:18:38.968Z,29568
2018-04-29T06:19:38.467Z,26400
2018-04-29T06:20:38.922Z,25088
2018-04-29T06:21:38.988Z,32096
2018-04-29T06:22:38.993Z,33888
2018-04-29T06:23:39.021Z,30464
2018-04-29T06:24:39.017Z,26304
2018-04-29T06:25:38.818Z,24768
2018-04-29T06:26:39.023Z,26976
2018-04-29T06:27:39.036Z,31648
2018-04-29T06:28:39.036Z,32320
2018-04-29T06:29:39.051Z,36416
2018-04-29T06:30:39.064Z,29440
2018-04-29T06:31:39.065Z,32864
2018-04-29T06:32:38.822Z,38816
2018-04-29T06:33:38.914Z,41632
2018-04-29T06:34:39.081Z,36256
2018-04-29T06:35:39.091Z,41408
2018-04-29T06:36:39.101Z,42336
2018-04-29T06:37:39.107Z,38464
2018-04-29T06:38:39.115Z,44672
2018-04-29T06:39:39.132Z,48256
2018-04-29T06:40:39.133Z,48128
2018-04-29T06:41:39.144Z,55520
2018-04-29T06:42:38.910Z,47904
2018-04-29T06:43:38.909Z,42624
2018-04-29T06:44:38.911Z,52000
2018-04-29T06:45:39.193Z,48288
2018-04-29T06:46:39.193Z,38592
2018-04-29T06:47:38.940Z,28768
2018-04-29T06:48:39.199Z,26112
2018-04-29T06:49:39.216Z,20608
2018-04-29T06:50:39.252Z,27296
2018-04-29T06:51:38.990Z,30912
2018-04-29T06:52:38.993Z,24736
2018-04-29T06:53:39.525Z,33088
2018-04-29T06:54:39.008Z,33312
2018-04-29T06:55:39.303Z,28288
2018-04-29T06:56:39.287Z,25216
2018-04-29T06:57:39.285Z,22976
2018-04-29T06:58:39.294Z,20000
2018-04-29T06:59:39.061Z,19168
2018-04-29T07:00:39.319Z,20416
2018-04-29T07:01:39.338Z,21280
2018-04-29T07:02:39.328Z,30624
2018-04-29T07:03:39.345Z,39936
2018-04-29T07:04:39.345Z,49024
2018-04-29T07:05:39.359Z,51680
2018-04-29T07:06:39.367Z,46240
2018-04-29T07:07:39.370Z,42784
2018-04-29T07:08:39.389Z,42016
2018-04-29T07:09:39.138Z,41920
2018-04-29T07:10:39.397Z,38432
2018-04-29T07:11:39.414Z,34304
2018-04-29T07:12:39.421Z,35040
2018-04-29T07:13:39.425Z,32032
2018-04-29T07:14:39.437Z,31552
2018-04-29T07:15:39.460Z,23808
2018-04-29T07:16:39.203Z,20320
2018-04-29T07:17:39.471Z,21600
2018-04-29T07:18:39.228Z,25472
2018-04-29T07:19:39.484Z,25792
2018-04-29T07:20:39.501Z,23968
2018-04-29T07:21:39.500Z,25728
2018-04-29T07:22:39.257Z,27584
2018-04-29T07:23:39.532Z,37536
2018-04-29T07:24:39.289Z,31744
2018-04-29T07:25:39.283Z,26848
2018-04-29T07:26:39.301Z,28224
2018-04-29T07:27:39.302Z,24448
2018-04-29T07:28:39.389Z,25440
2018-04-29T07:29:39.579Z,35776
2018-04-29T07:30:39.581Z,26272
2018-04-29T07:31:39.599Z,29248
2018-04-29T07:32:39.597Z,29696
2018-04-29T07:33:39.367Z,49504
2018-04-29T07:34:39.619Z,46432
2018-04-29T07:35:39.373Z,55840
2018-04-29T07:36:39.726Z,28192
2018-04-29T07:37:39.395Z,25856
2018-04-29T07:38:39.157Z,23008
2018-04-29T07:39:39.658Z,21472
2018-04-29T07:40:39.666Z,20768
2018-04-29T07:41:39.682Z,21184
2018-04-29T07:42:39.683Z,21568
2018-04-29T07:43:39.694Z,20704
2018-04-29T07:44:39.528Z,20672
2018-04-29T07:45:39.708Z,20128
2018-04-29T07:46:39.793Z,20384
2018-04-29T07:47:39.726Z,22144
2018-04-29T07:48:39.734Z,20512
2018-04-29T07:49:39.741Z,19072
2018-04-29T07:50:39.502Z,19328
2018-04-29T07:51:39.498Z,23776
2018-04-29T07:52:40.427Z,39360
2018-04-29T07:53:39.780Z,42528
2018-04-29T07:54:39.271Z,87040
2018-04-29T07:55:39.795Z,80160
2018-04-29T07:56:39.545Z,29760
2018-04-29T07:57:39.800Z,27584
2018-04-29T07:58:39.801Z,27968
2018-04-29T07:59:39.826Z,31808
2018-04-29T08:00:39.668Z,29152
2018-04-29T08:01:39.826Z,22368
2018-04-29T08:02:39.606Z,20992
2018-04-29T08:03:39.601Z,27264
2018-04-29T08:04:39.625Z,36064
2018-04-29T08:05:39.604Z,28064
2018-04-29T08:06:39.895Z,30784
2018-04-29T08:07:39.877Z,28000
2018-04-29T08:08:39.880Z,28576
2018-04-29T08:09:39.885Z,35104
2018-04-29T08:10:39.905Z,39904
2018-04-29T08:11:39.665Z,44480
2018-04-29T08:12:39.907Z,61856
2018-04-29T08:13:39.912Z,71232
2018-04-29T08:14:39.936Z,55456
2018-04-29T08:15:40.304Z,54976
2018-04-29T08:16:39.696Z,47424
2018-04-29T08:17:39.938Z,30656
2018-04-29T08:18:39.957Z,25632
2018-04-29T08:19:39.714Z,24672
2018-04-29T08:20:39.718Z,25696
2018-04-29T08:21:39.729Z,26400
2018-04-29T08:22:40.194Z,25024
2018-04-29T08:23:39.988Z,24160
2018-04-29T08:24:39.998Z,22944
2018-04-29T08:25:40.007Z,24992
2018-04-29T08:26:40.104Z,31168
2018-04-29T08:27:40.019Z,41728
2018-04-29T08:28:39.772Z,28160
2018-04-29T08:29:39.777Z,26560
2018-04-29T08:30:39.781Z,31456
2018-04-29T08:31:40.047Z,40096
2018-04-29T08:32:40.058Z,26368
2018-04-29T08:33:40.064Z,24416
2018-04-29T08:34:40.078Z,22752
2018-04-29T08:35:40.067Z,21248
2018-04-29T08:36:39.834Z,19008
2018-04-29T08:37:40.098Z,16160
2018-04-29T08:38:39.848Z,13860
2018-04-29T08:39:39.590Z,12680
2018-04-29T08:40:40.118Z,11748
2018-04-29T08:41:40.125Z,11792
2018-04-29T08:42:40.124Z,12920
2018-04-29T08:43:40.130Z,14596
2018-04-29T08:44:39.874Z,16640
2018-04-29T08:45:40.131Z,18656
2018-04-29T08:46:40.148Z,21056
2018-04-29T08:47:39.891Z,23584
2018-04-29T08:48:40.297Z,25824
2018-04-29T08:49:40.300Z,26944
2018-04-29T08:50:39.911Z,27136
2018-04-29T08:51:39.913Z,24384
2018-04-29T08:52:40.467Z,20608
2018-04-29T08:53:39.977Z,17248
2018-04-29T08:54:39.674Z,15180
2018-04-29T08:55:40.184Z,13684
2018-04-29T08:56:40.241Z,13496
2018-04-29T08:57:40.198Z,12904
2018-04-29T08:58:40.198Z,12988
2018-04-29T08:59:40.202Z,12572
2018-04-29T09:00:40.224Z,12136
2018-04-29T09:01:40.079Z,11648
2018-04-29T09:02:39.963Z,11184
2018-04-29T09:03:40.392Z,10872
2018-04-29T09:04:40.243Z,10704
2018-04-29T09:05:40.258Z,11240
2018-04-29T09:06:40.318Z,10996
2018-04-29T09:07:40.244Z,10568
2018-04-29T09:08:40.240Z,10280
2018-04-29T09:09:40.258Z,10052
2018-04-29T09:10:39.991Z,9872
2018-04-29T09:11:40.249Z,9720
2018-04-29T09:12:40.245Z,9572
2018-04-29T09:13:40.249Z,9444
2018-04-29T09:14:40.249Z,9308
2018-04-29T09:15:40.256Z,9152
2018-04-29T09:16:40.268Z,9112
2018-04-29T09:17:40.259Z,9024
2018-04-29T09:18:40.255Z,8812
2018-04-29T09:19:40.263Z,8584
2018-04-29T09:20:40.261Z,8404
2018-04-29T09:21:40.259Z,8232
2018-04-29T09:22:40.260Z,8056
2018-04-29T09:23:40.018Z,7952
2018-04-29T09:24:40.023Z,7840
2018-04-29T09:25:40.017Z,7724
2018-04-29T09:26:40.018Z,7624
2018-04-29T09:27:40.264Z,7536
2018-04-29T09:28:40.265Z,7472
2018-04-29T09:29:40.273Z,7424
2018-04-29T09:30:40.269Z,7388
2018-04-29T09:31:40.362Z,7348
2018-04-29T09:32:40.290Z,7300
2018-04-29T09:33:40.276Z,7248
2018-04-29T09:34:40.272Z,7220
2018-04-29T09:35:40.293Z,7188
2018-04-29T09:36:40.271Z,7172
2018-04-29T09:37:40.278Z,7156
2018-04-29T09:38:40.295Z,7140
2018-04-29T09:39:40.020Z,7144
2018-04-29T09:40:39.527Z,7144
2018-04-29T09:41:40.271Z,7136
2018-04-29T09:42:40.027Z,7136
2018-04-29T09:43:40.286Z,7140
2018-04-29T09:44:39.773Z,7144
2018-04-29T09:45:40.293Z,7140
2018-04-29T09:46:40.289Z,7116
2018-04-29T09:47:40.274Z,7104
2018-04-29T09:48:40.491Z,7092
2018-04-29T09:49:40.274Z,7072
2018-04-29T09:50:40.282Z,7048
2018-04-29T09:51:40.021Z,7036
2018-04-29T09:52:40.278Z,7024
2018-04-29T09:53:40.279Z,7004
2018-04-29T09:54:39.767Z,6976
2018-04-29T09:55:40.277Z,6952
2018-04-29T09:56:40.310Z,6928
2018-04-29T09:57:40.275Z,6908
2018-04-29T09:58:40.300Z,6884
2018-04-29T09:59:40.031Z,6876
2018-04-29T10:00:39.804Z,6860
2018-04-29T10:01:40.289Z,6848
2018-04-29T10:02:40.285Z,6844
2018-04-29T10:03:40.025Z,6836
2018-04-29T10:04:40.036Z,6832
2018-04-29T10:05:40.022Z,6812
2018-04-29T10:06:40.029Z,6784
2018-04-29T10:07:40.023Z,6760
2018-04-29T10:08:40.276Z,6736
2018-04-29T10:09:40.203Z,6712
2018-04-29T10:10:40.020Z,6700
2018-04-29T10:11:39.767Z,6704
2018-04-29T10:12:40.277Z,6720
2018-04-29T10:13:39.767Z,6728
2018-04-29T10:14:40.031Z,6736
2018-04-29T10:15:40.278Z,6756
2018-04-29T10:16:39.770Z,6772
2018-04-29T10:17:40.291Z,6780
2018-04-29T10:18:40.289Z,6772
2018-04-29T10:19:40.275Z,6768
2018-04-29T10:20:40.021Z,6748
2018-04-29T10:21:40.048Z,6724
2018-04-29T10:22:39.792Z,6712
2018-04-29T10:23:40.275Z,6716
2018-04-29T10:24:40.196Z,6712
2018-04-29T10:25:40.024Z,6676
2018-04-29T10:26:40.030Z,6660
2018-04-29T10:27:40.022Z,6652
2018-04-29T10:28:39.771Z,6644
2018-04-29T10:29:40.281Z,6644
2018-04-29T10:30:40.030Z,6640
2018-04-29T10:31:40.025Z,6640
2018-04-29T10:32:40.111Z,6656
2018-04-29T10:33:40.282Z,6688
2018-04-29T10:34:40.273Z,6696
2018-04-29T10:35:40.026Z,6692
2018-04-29T10:36:40.271Z,6680
2018-04-29T10:37:40.360Z,6660
2018-04-29T10:38:40.279Z,6628
2018-04-29T10:39:40.273Z,6580
2018-04-29T10:40:40.018Z,6532
2018-04-29T10:41:40.285Z,6480
2018-04-29T10:42:40.281Z,6440
2018-04-29T10:43:40.277Z,6396
2018-04-29T10:44:40.273Z,6360
2018-04-29T10:45:40.270Z,6328
2018-04-29T10:46:40.022Z,6308
2018-04-29T10:47:40.294Z,6296
2018-04-29T10:48:40.278Z,6292
2018-04-29T10:49:40.035Z,6288
2018-04-29T10:50:40.019Z,6296
2018-04-29T10:51:40.354Z,6324
2018-04-29T10:52:40.170Z,6356
2018-04-29T10:53:40.267Z,6384
2018-04-29T10:54:40.278Z,6388
2018-04-29T10:55:40.033Z,6400
2018-04-29T10:56:40.555Z,6408
2018-04-29T10:57:40.025Z,6404
2018-04-29T10:58:40.300Z,6400
2018-04-29T10:59:40.281Z,6392
2018-04-29T11:00:40.281Z,6380
2018-04-29T11:01:40.278Z,6368
2018-04-29T11:02:40.270Z,6372
2018-04-29T11:03:40.356Z,6376
2018-04-29T11:04:40.041Z,6384
2018-04-29T11:05:40.279Z,6380
2018-04-29T11:06:40.287Z,6380
2018-04-29T11:07:40.283Z,6372
2018-04-29T11:08:40.285Z,6352
2018-04-29T11:09:40.020Z,6332
2018-04-29T11:10:40.023Z,6312
2018-04-29T11:11:40.110Z,6296
2018-04-29T11:12:40.046Z,6280
2018-04-29T11:13:40.283Z,6272
2018-04-29T11:14:40.292Z,6252
2018-04-29T11:15:40.276Z,6240
2018-04-29T11:16:40.304Z,6216
2018-04-29T11:17:40.309Z,6196
2018-04-29T11:18:40.275Z,6180
2018-04-29T11:19:40.291Z,6148
2018-04-29T11:20:40.043Z,6124
2018-04-29T11:21:40.283Z,6104
2018-04-29T11:22:40.287Z,6080
2018-04-29T11:23:40.277Z,6064
2018-04-29T11:24:40.036Z,6052
2018-04-29T11:25:40.364Z,6052
2018-04-29T11:26:40.065Z,6052
2018-04-29T11:27:40.293Z,6060
2018-04-29T11:28:40.319Z,6056
2018-04-29T11:29:40.030Z,6060
2018-04-29T11:30:40.306Z,6068
2018-04-29T11:31:40.283Z,6076
2018-04-29T11:32:40.291Z,6088
2018-04-29T11:33:40.292Z,6096
2018-04-29T11:34:40.301Z,6104
2018-04-29T11:35:40.292Z,6104
2018-04-29T11:36:40.031Z,6100
2018-04-29T11:37:40.049Z,6100
2018-04-29T11:38:40.042Z,6092
2018-04-29T11:39:40.038Z,6080
2018-04-29T11:40:40.519Z,6068
2018-04-29T11:41:40.292Z,6060
2018-04-29T11:42:40.303Z,6060
2018-04-29T11:43:40.287Z,6052
2018-04-29T11:44:40.292Z,6040
2018-04-29T11:45:40.046Z,6028
2018-04-29T11:46:40.301Z,6016
2018-04-29T11:47:40.293Z,5992
2018-04-29T11:48:40.040Z,5956
2018-04-29T11:49:40.297Z,5928
2018-04-29T11:50:40.297Z,5888
2018-04-29T11:51:40.295Z,5852
2018-04-29T11:52:40.304Z,5816
2018-04-29T11:53:40.302Z,5784
2018-04-29T11:54:40.304Z,5748
2018-04-29T11:55:40.301Z,5712
2018-04-29T11:56:40.298Z,5672
2018-04-29T11:57:40.324Z,5640
2018-04-29T11:58:40.053Z,5616
2018-04-29T11:59:40.606Z,5596
2018-04-29T12:00:40.051Z,5584
2018-04-29T12:01:40.315Z,5576
2018-04-29T12:02:39.985Z,5568
2018-04-29T12:03:40.064Z,5552
2018-04-29T12:04:40.052Z,5544
2018-04-29T12:05:40.318Z,5540
2018-04-29T12:06:39.801Z,5536
2018-04-29T12:07:40.307Z,5536
2018-04-29T12:08:40.309Z,5528
2018-04-29T12:09:40.313Z,5524
2018-04-29T12:10:40.311Z,5516
2018-04-29T12:11:40.131Z,5516
2018-04-29T12:12:40.317Z,5512
2018-04-29T12:13:40.315Z,5508
2018-04-29T12:14:39.807Z,5500
2018-04-29T12:15:40.150Z,5492
2018-04-29T12:16:40.446Z,5484
2018-04-29T12:17:40.321Z,5476
2018-04-29T12:18:40.314Z,5468
2018-04-29T12:19:40.317Z,5464
2018-04-29T12:20:40.073Z,5452
2018-04-29T12:21:40.066Z,5440
2018-04-29T12:22:40.322Z,5424
2018-04-29T12:23:40.066Z,5412
2018-04-29T12:24:40.687Z,5396
2018-04-29T12:25:40.324Z,5376
2018-04-29T12:26:40.332Z,5352
2018-04-29T12:27:40.332Z,5324
2018-04-29T12:28:40.328Z,5300
2018-04-29T12:29:40.355Z,5276
2018-04-29T12:30:40.334Z,5260
2018-04-29T12:31:40.326Z,5244
2018-04-29T12:32:40.076Z,5232
2018-04-29T12:33:40.631Z,5224
2018-04-29T12:34:39.828Z,5208
2018-04-29T12:35:40.329Z,5200
2018-04-29T12:36:40.331Z,5188
2018-04-29T12:37:40.346Z,5188
2018-04-29T12:38:40.342Z,5188
2018-04-29T12:39:40.334Z,5184
2018-04-29T12:40:40.336Z,5180
2018-04-29T12:41:40.342Z,5176
2018-04-29T12:42:40.334Z,5176
2018-04-29T12:43:40.336Z,5172
2018-04-29T12:44:40.334Z,5164
2018-04-29T12:45:40.341Z,5156
2018-04-29T12:46:39.918Z,5140
2018-04-29T12:47:40.113Z,5140
2018-04-29T12:48:40.350Z,5128
2018-04-29T12:49:40.100Z,5120
2018-04-29T12:50:40.350Z,5112
2018-04-29T12:51:40.360Z,5108
2018-04-29T12:52:40.348Z,5104
2018-04-29T12:53:40.355Z,5096
2018-04-29T12:54:40.345Z,5080
2018-04-29T12:55:40.353Z,5064
2018-04-29T12:56:39.842Z,5056
2018-04-29T12:57:40.100Z,5044
2018-04-29T12:58:40.351Z,5036
2018-04-29T12:59:40.106Z,5028
2018-04-29T13:00:40.097Z,5016
2018-04-29T13:01:40.361Z,5008
2018-04-29T13:02:40.353Z,5000
2018-04-29T13:03:40.364Z,4992
2018-04-29T13:04:40.360Z,4988
2018-04-29T13:05:40.679Z,4984
2018-04-29T13:06:40.364Z,4984
2018-04-29T13:07:39.868Z,4984
2018-04-29T13:08:40.122Z,4984
2018-04-29T13:09:39.859Z,4976
2018-04-29T13:10:40.116Z,4972
2018-04-29T13:11:40.128Z,4968
2018-04-29T13:12:40.367Z,4964
2018-04-29T13:13:40.390Z,4952
2018-04-29T13:14:40.118Z,4948
2018-04-29T13:15:40.395Z,4940
2018-04-29T13:16:39.868Z,4936
2018-04-29T13:17:40.386Z,4936
2018-04-29T13:18:40.377Z,4936
2018-04-29T13:19:40.371Z,4936
2018-04-29T13:20:40.388Z,4940
2018-04-29T13:21:40.371Z,4948
2018-04-29T13:22:40.379Z,4952
2018-04-29T13:23:40.134Z,4952
2018-04-29T13:24:40.380Z,4956
2018-04-29T13:25:40.136Z,4952
2018-04-29T13:26:40.397Z,4960
2018-04-29T13:27:40.147Z,4960
2018-04-29T13:28:39.880Z,4960
2018-04-29T13:29:40.472Z,4964
2018-04-29T13:30:40.386Z,4976
2018-04-29T13:31:40.386Z,4976